Terminal Aerodrome Forecast
Issued by NWS Tuscon, AZ

Home | Current Version | Previous Version | Text Only | Print | Product List | Glossary On
Versions: 1 2 3 4 5 6 7 8 9 10 11 12 13 14
347
FTUS45 KTWC 261731
TAFDUG
TAF
KDUG 261731Z 2618/2718 VRB06KT P6SM SCT070 SCT100
     FM262000 35008KT P6SM VCTS SCT060CB BKN100
     FM270000 01009KT P6SM SCT070 BKN110
     FM270300 02006KT P6SM FEW070 SCT110=

USA.gov is the U.S. government's official web portal to all federal, state and local government web resources and services.